Time;durP1;ratioP1;P1;durP2;ratioP2;P2;SDS_P1;SDS_P2;PMS_P1;PMS_P2;Temp;Humidity;BMP_temperature;BMP_pressure;BME280_temperature;BME280_humidity;BME280_pressure;Samples;Min_cycle;Max_cycle;Signal;HPM_P1;HPM_P2
2023/11/10 00:01:25;;;;;;;1.00;0.90;;;8.80;99.90;;;;;;5054618;28;20220;-74
2023/11/10 00:03:52;;;;;;;1.30;1.20;;;8.70;99.90;;;;;;5045051;28;20220;-74
2023/11/10 00:06:18;;;;;;;1.10;0.90;;;8.70;99.90;;;;;;5049022;28;20461;-73
2023/11/10 00:08:44;;;;;;;1.17;0.90;;;8.70;99.90;;;;;;5042421;28;20451;-74
2023/11/10 00:11:10;;;;;;;0.70;0.70;;;8.70;99.90;;;;;;5058163;28;20217;-74
2023/11/10 00:13:35;;;;;;;3.87;0.90;;;8.70;99.90;;;;;;5035557;28;20470;-75
2023/11/10 00:16:01;;;;;;;2.30;1.07;;;8.70;99.90;;;;;;5013845;28;20687;-74
2023/11/10 00:18:27;;;;;;;2.30;0.90;;;8.50;99.90;;;;;;5040200;28;20247;-74
2023/11/10 00:20:52;;;;;;;0.83;0.70;;;8.60;99.90;;;;;;5021129;28;20303;-74
2023/11/10 00:23:18;;;;;;;2.40;0.90;;;8.60;99.90;;;;;;5054491;28;20212;-74
2023/11/10 00:25:44;;;;;;;0.97;0.90;;;8.70;99.90;;;;;;5066554;28;20220;-74
2023/11/10 00:28:11;;;;;;;2.70;0.63;;;8.70;99.90;;;;;;5042870;28;20798;-74
2023/11/10 00:30:36;;;;;;;0.73;0.73;;;8.80;99.90;;;;;;5031465;28;20237;-74
2023/11/10 00:33:02;;;;;;;1.50;0.73;;;8.80;99.90;;;;;;5042993;28;20840;-74
2023/11/10 00:35:28;;;;;;;2.37;0.80;;;8.80;99.90;;;;;;5061273;28;20228;-74
2023/11/10 00:37:54;;;;;;;3.00;0.90;;;8.80;99.90;;;;;;5033037;28;20243;-75
2023/11/10 00:40:20;;;;;;;2.57;1.13;;;8.80;99.90;;;;;;5012477;28;20982;-74
2023/11/10 00:42:46;;;;;;;1.90;0.70;;;8.80;99.90;;;;;;5012113;28;20247;-75
2023/11/10 00:45:12;;;;;;;1.67;0.60;;;8.80;99.90;;;;;;5037676;28;20490;-74
2023/11/10 00:47:38;;;;;;;1.27;1.17;;;8.80;99.90;;;;;;5036772;28;20508;-75
2023/11/10 00:50:05;;;;;;;0.60;0.60;;;8.80;99.90;;;;;;5013476;28;20447;-75
2023/11/10 00:52:31;;;;;;;2.23;0.70;;;8.80;99.90;;;;;;5044964;28;20211;-74
2023/11/10 00:54:57;;;;;;;5.27;0.90;;;8.80;99.90;;;;;;5031623;28;20482;-75
2023/11/10 00:57:23;;;;;;;1.07;1.00;;;8.80;99.90;;;;;;5049318;28;20212;-75
2023/11/10 00:59:48;;;;;;;7.20;1.20;;;8.80;99.90;;;;;;5049975;28;20243;-75
2023/11/10 01:02:14;;;;;;;1.20;0.97;;;8.70;99.90;;;;;;5035874;28;20552;-74
2023/11/10 01:04:41;;;;;;;1.57;0.97;;;8.70;99.90;;;;;;5047870;28;20239;-74
2023/11/10 01:07:07;;;;;;;1.03;0.80;;;8.70;99.90;;;;;;5045026;28;20208;-74
2023/11/10 01:09:32;;;;;;;3.90;0.90;;;8.70;99.90;;;;;;5042331;28;20468;-74
2023/11/10 01:11:58;;;;;;;0.70;0.70;;;8.60;99.90;;;;;;5044886;28;20223;-74
2023/11/10 01:14:24;;;;;;;1.10;0.60;;;8.60;99.90;;;;;;5028155;28;20263;-74
2023/11/10 01:16:50;;;;;;;1.23;0.90;;;8.60;99.90;;;;;;5047849;28;20288;-75
2023/11/10 01:19:17;;;;;;;2.40;0.90;;;8.60;99.90;;;;;;5036138;28;20246;-75
2023/11/10 01:21:42;;;;;;;1.10;0.97;;;8.60;99.90;;;;;;5027905;28;20216;-75
2023/11/10 01:24:08;;;;;;;2.10;1.00;;;8.60;99.90;;;;;;5029343;28;20505;-74
2023/11/10 01:26:34;;;;;;;1.67;0.70;;;8.60;99.90;;;;;;5031795;28;20217;-75
2023/11/10 01:28:59;;;;;;;2.50;0.77;;;8.60;99.90;;;;;;5047474;28;20634;-74
2023/11/10 01:31:25;;;;;;;0.70;0.50;;;8.70;99.90;;;;;;5045445;28;20302;-74
2023/11/10 01:33:51;;;;;;;1.40;0.90;;;8.70;99.90;;;;;;5049038;28;20222;-75
2023/11/10 01:36:16;;;;;;;2.30;0.70;;;8.70;99.90;;;;;;5064812;28;20228;-74
2023/11/10 01:38:42;;;;;;;0.73;0.70;;;8.80;99.90;;;;;;5067278;28;20221;-74
2023/11/10 01:41:09;;;;;;;1.10;0.70;;;8.80;99.90;;;;;;5025628;28;20220;-75
2023/11/10 01:43:34;;;;;;;0.70;0.63;;;8.80;99.90;;;;;;5024275;28;20221;-75
2023/11/10 01:46:01;;;;;;;0.97;0.80;;;8.80;99.90;;;;;;5030169;28;20458;-75
2023/11/10 01:48:27;;;;;;;1.37;0.80;;;8.80;99.90;;;;;;5028874;28;20211;-75
2023/11/10 01:50:53;;;;;;;2.33;0.93;;;8.80;99.90;;;;;;5028983;28;20827;-75
2023/11/10 01:53:18;;;;;;;1.40;0.77;;;8.80;99.90;;;;;;5042877;28;20220;-76
2023/11/10 01:55:47;;;;;;;1.33;0.70;;;8.80;99.90;;;;;;5028198;28;20228;-75
2023/11/10 01:58:13;;;;;;;0.60;0.60;;;8.90;99.90;;;;;;5036302;28;20216;-74
2023/11/10 02:00:39;;;;;;;5.60;1.20;;;8.80;99.90;;;;;;5021404;28;20873;-75
2023/11/10 02:03:07;;;;;;;1.53;0.57;;;8.80;99.90;;;;;;5027433;28;20641;-75
2023/11/10 02:05:33;;;;;;;4.70;0.80;;;8.80;99.90;;;;;;5034417;28;20545;-74
2023/11/10 02:08:02;;;;;;;1.00;0.90;;;8.80;99.90;;;;;;5020144;28;20459;-74
2023/11/10 02:10:28;;;;;;;3.03;0.80;;;8.80;99.90;;;;;;5023860;28;20466;-74
2023/11/10 02:12:58;;;;;;;1.33;1.03;;;8.80;99.90;;;;;;5037744;28;20458;-75
2023/11/10 02:15:24;;;;;;;2.20;0.77;;;8.80;99.90;;;;;;5033036;28;20603;-75
2023/11/10 02:17:51;;;;;;;3.90;0.90;;;8.80;99.90;;;;;;5019359;28;20529;-74
2023/11/10 02:20:16;;;;;;;1.13;0.70;;;8.80;99.90;;;;;;5027544;28;20467;-74
2023/11/10 02:22:43;;;;;;;3.93;1.43;;;8.80;99.90;;;;;;5041446;28;20545;-74
2023/11/10 02:25:15;;;;;;;0.77;0.77;;;8.80;99.90;;;;;;5033693;28;20223;-74
2023/11/10 02:27:41;;;;;;;3.13;0.80;;;8.80;99.90;;;;;;5052172;28;20541;-75
2023/11/10 02:30:08;;;;;;;1.60;0.87;;;8.80;99.90;;;;;;5038232;28;20809;-75
2023/11/10 02:32:34;;;;;;;2.10;0.77;;;8.80;99.90;;;;;;5043245;28;20996;-75
2023/11/10 02:35:00;;;;;;;1.20;0.83;;;8.80;99.90;;;;;;5071222;28;20476;-74
2023/11/10 02:37:25;;;;;;;1.90;0.73;;;8.80;99.90;;;;;;5047481;28;20377;-75
2023/11/10 02:39:51;;;;;;;0.63;0.63;;;8.80;99.90;;;;;;5045670;28;20465;-75
2023/11/10 02:42:17;;;;;;;0.87;0.70;;;8.70;99.90;;;;;;5029898;28;20212;-75
2023/11/10 02:44:42;;;;;;;1.10;1.00;;;8.80;99.90;;;;;;5041446;28;20220;-75
2023/11/10 02:47:08;;;;;;;7.40;1.20;;;8.80;99.90;;;;;;5046268;28;20208;-75
2023/11/10 02:49:34;;;;;;;2.83;1.10;;;8.70;99.90;;;;;;5061450;28;20220;-75
2023/11/10 02:52:00;;;;;;;1.40;1.10;;;8.70;99.90;;;;;;5029325;28;20809;-75
2023/11/10 02:54:25;;;;;;;1.80;0.60;;;8.70;99.90;;;;;;5036931;28;20291;-75
2023/11/10 02:56:51;;;;;;;1.20;0.60;;;8.70;99.90;;;;;;5044676;28;20212;-75
2023/11/10 02:59:17;;;;;;;0.90;0.80;;;8.70;99.90;;;;;;5046312;28;20349;-75
2023/11/10 03:01:42;;;;;;;1.50;0.67;;;8.70;99.90;;;;;;5043965;28;20303;-75
2023/11/10 03:04:09;;;;;;;0.70;0.57;;;8.80;99.90;;;;;;5029742;28;20215;-75
2023/11/10 03:06:34;;;;;;;0.93;0.93;;;8.70;99.90;;;;;;5041653;28;20481;-75
2023/11/10 03:09:01;;;;;;;0.83;0.77;;;8.70;99.90;;;;;;5028855;28;20208;-74
2023/11/10 03:11:27;;;;;;;1.07;0.90;;;8.70;99.90;;;;;;5045301;28;20591;-75
2023/11/10 03:13:54;;;;;;;1.83;1.03;;;8.70;99.90;;;;;;5047568;28;20449;-75
2023/11/10 03:16:22;;;;;;;3.50;0.97;;;8.70;99.90;;;;;;5043216;28;20303;-75
2023/11/10 03:18:53;;;;;;;1.20;1.10;;;8.70;99.90;;;;;;5064739;28;20458;-75
2023/11/10 03:21:19;;;;;;;1.20;0.90;;;8.70;99.90;;;;;;5040018;28;21036;-74
2023/11/10 03:23:45;;;;;;;0.77;0.77;;;8.70;99.90;;;;;;5046246;28;20447;-74
2023/11/10 03:26:12;;;;;;;1.23;0.73;;;8.60;99.90;;;;;;5046057;28;20830;-74
2023/11/10 03:28:37;;;;;;;0.90;0.80;;;8.60;99.90;;;;;;5027404;28;20557;-75
2023/11/10 03:31:07;;;;;;;0.70;0.70;;;8.60;99.90;;;;;;5029787;28;20611;-73
2023/11/10 03:33:36;;;;;;;6.83;0.80;;;8.60;99.90;;;;;;5040740;28;20669;-75
2023/11/10 03:36:05;;;;;;;0.60;0.60;;;8.60;99.90;;;;;;5039408;28;20466;-75
2023/11/10 03:38:31;;;;;;;1.73;1.00;;;8.60;99.90;;;;;;5018962;28;20496;-75
2023/11/10 03:40:58;;;;;;;4.00;0.70;;;8.60;99.90;;;;;;5032163;28;20455;-74
2023/11/10 03:43:25;;;;;;;4.93;0.80;;;8.60;99.90;;;;;;5024717;28;20456;-74
2023/11/10 03:45:52;;;;;;;1.73;0.77;;;8.60;99.90;;;;;;5045137;28;20454;-75
2023/11/10 03:48:17;;;;;;;1.17;0.90;;;8.40;99.90;;;;;;5061079;28;20465;-74
2023/11/10 03:50:43;;;;;;;1.20;0.80;;;8.40;99.90;;;;;;5026652;28;20224;-75
2023/11/10 03:53:09;;;;;;;2.10;0.73;;;8.40;99.90;;;;;;5051190;28;20277;-74
2023/11/10 03:55:34;;;;;;;1.90;0.87;;;8.50;99.90;;;;;;5023107;28;20237;-75
2023/11/10 03:58:00;;;;;;;0.80;0.67;;;8.50;99.90;;;;;;5037196;28;20209;-74
2023/11/10 04:00:26;;;;;;;0.77;0.50;;;8.50;99.90;;;;;;5023034;28;20212;-75
2023/11/10 04:02:52;;;;;;;1.50;0.60;;;8.50;99.90;;;;;;5047412;28;20211;-75
2023/11/10 04:05:18;;;;;;;2.20;0.63;;;8.40;99.90;;;;;;5045418;28;20608;-74
2023/11/10 04:07:44;;;;;;;1.47;0.60;;;8.30;99.90;;;;;;5047822;28;20461;-75
2023/11/10 04:10:10;;;;;;;1.53;0.60;;;8.30;99.90;;;;;;5054271;28;20466;-74
2023/11/10 04:12:36;;;;;;;0.80;0.57;;;8.20;99.90;;;;;;5060201;28;20220;-75
2023/11/10 04:15:03;;;;;;;3.23;0.73;;;8.20;99.90;;;;;;5053097;28;20462;-75
2023/11/10 04:17:29;;;;;;;0.67;0.53;;;8.30;99.90;;;;;;5042123;28;20967;-74
2023/11/10 04:19:54;;;;;;;1.03;0.70;;;8.20;99.90;;;;;;5023690;28;20460;-75
2023/11/10 04:22:20;;;;;;;1.00;0.57;;;8.10;99.90;;;;;;5039790;28;20216;-75
2023/11/10 04:24:45;;;;;;;0.70;0.70;;;8.10;99.90;;;;;;5022068;28;20244;-75
2023/11/10 04:27:12;;;;;;;2.00;0.60;;;8.10;99.90;;;;;;5038108;28;20217;-73
2023/11/10 04:29:39;;;;;;;0.50;0.43;;;8.10;99.90;;;;;;5036770;28;20314;-75
2023/11/10 04:32:05;;;;;;;0.90;0.50;;;8.10;99.90;;;;;;5059243;28;20459;-73
2023/11/10 04:34:31;;;;;;;0.77;0.73;;;8.00;99.90;;;;;;5033764;28;20464;-75
2023/11/10 04:36:57;;;;;;;0.40;0.40;;;7.90;99.90;;;;;;5037269;28;20462;-75
2023/11/10 04:39:24;;;;;;;0.50;0.40;;;7.90;99.90;;;;;;5041496;28;20246;-74
2023/11/10 04:41:49;;;;;;;0.43;0.43;;;7.90;99.90;;;;;;5031572;28;20217;-75
2023/11/10 04:44:16;;;;;;;0.80;0.60;;;7.80;99.90;;;;;;5040422;28;20581;-74
2023/11/10 04:46:42;;;;;;;2.07;0.73;;;7.80;99.90;;;;;;5015216;28;20278;-75
2023/11/10 04:49:11;;;;;;;0.80;0.70;;;7.80;99.90;;;;;;5055740;28;20507;-74
2023/11/10 04:51:37;;;;;;;1.70;0.50;;;7.80;99.90;;;;;;5017313;28;20462;-75
2023/11/10 04:54:04;;;;;;;0.73;0.60;;;7.80;99.90;;;;;;5060885;28;20455;-75
2023/11/10 04:56:30;;;;;;;0.70;0.50;;;7.80;99.90;;;;;;5031265;28;20223;-74
2023/11/10 04:58:55;;;;;;;2.80;0.73;;;7.80;99.90;;;;;;5042623;28;20477;-75
2023/11/10 05:01:21;;;;;;;1.87;0.60;;;7.80;99.90;;;;;;5050369;28;20551;-75
2023/11/10 05:03:48;;;;;;;0.70;0.70;;;7.70;99.90;;;;;;5052614;28;20216;-75
2023/11/10 05:06:14;;;;;;;0.70;0.53;;;7.70;99.90;;;;;;5037636;28;20212;-75
2023/11/10 05:08:40;;;;;;;0.80;0.40;;;7.70;99.90;;;;;;5058200;28;20491;-74
2023/11/10 05:11:06;;;;;;;0.70;0.40;;;7.70;99.90;;;;;;5026608;28;20540;-74
2023/11/10 05:13:32;;;;;;;1.17;0.50;;;7.70;99.90;;;;;;5035944;28;20223;-74
2023/11/10 05:15:58;;;;;;;1.13;0.63;;;7.70;99.90;;;;;;5060618;28;20465;-75
2023/11/10 05:18:27;;;;;;;0.70;0.63;;;7.70;99.90;;;;;;5011810;28;20224;-75
2023/11/10 05:20:55;;;;;;;1.10;0.70;;;7.60;99.90;;;;;;5046541;28;20481;-75
2023/11/10 05:23:21;;;;;;;1.53;0.77;;;7.60;99.90;;;;;;5031843;28;20446;-74
2023/11/10 05:25:46;;;;;;;6.40;0.97;;;7.60;99.90;;;;;;5041167;28;20467;-75
2023/11/10 05:28:12;;;;;;;1.33;0.60;;;7.60;99.90;;;;;;5039512;28;20453;-75
2023/11/10 05:30:37;;;;;;;0.50;0.40;;;7.60;99.90;;;;;;5030048;28;20225;-74
2023/11/10 05:33:03;;;;;;;3.80;0.70;;;7.60;99.90;;;;;;5035262;28;20227;-75
2023/11/10 05:35:29;;;;;;;0.77;0.47;;;7.50;99.90;;;;;;5057625;28;20722;-74
2023/11/10 05:37:55;;;;;;;1.03;0.77;;;7.40;99.90;;;;;;5064215;28;20567;-75
2023/11/10 05:40:21;;;;;;;1.00;0.67;;;7.40;99.90;;;;;;5045153;28;20307;-74
2023/11/10 05:42:47;;;;;;;0.73;0.37;;;7.30;99.90;;;;;;5031485;28;20216;-74
2023/11/10 05:45:12;;;;;;;2.33;0.90;;;7.30;99.90;;;;;;5051641;28;20809;-75
2023/11/10 05:47:38;;;;;;;0.97;0.37;;;7.30;99.90;;;;;;5061112;28;20285;-74
2023/11/10 05:50:06;;;;;;;5.60;0.77;;;7.20;99.90;;;;;;5052454;28;20220;-74
2023/11/10 05:52:32;;;;;;;1.67;0.50;;;7.20;99.90;;;;;;5034953;28;20230;-74
2023/11/10 05:55:01;;;;;;;2.00;1.27;;;7.20;99.90;;;;;;5065458;28;20462;-74
2023/11/10 05:57:27;;;;;;;5.30;1.20;;;7.20;99.90;;;;;;5058723;28;20461;-74
2023/11/10 05:59:53;;;;;;;1.67;0.60;;;7.20;99.90;;;;;;5041905;28;20463;-75
2023/11/10 06:02:18;;;;;;;0.90;0.60;;;7.10;99.90;;;;;;5016950;28;20216;-74
2023/11/10 06:04:44;;;;;;;0.60;0.53;;;7.00;99.90;;;;;;5042382;28;20694;-74
2023/11/10 06:07:11;;;;;;;1.20;0.50;;;7.00;99.90;;;;;;5049310;28;20240;-74
2023/11/10 06:09:37;;;;;;;0.97;0.57;;;7.00;99.90;;;;;;5021374;28;20244;-74
2023/11/10 06:12:05;;;;;;;0.63;0.63;;;7.00;99.90;;;;;;5046399;28;20537;-74
2023/11/10 06:14:31;;;;;;;3.10;0.80;;;7.00;99.90;;;;;;5028447;28;20477;-74
2023/11/10 06:16:57;;;;;;;3.10;0.90;;;7.10;99.90;;;;;;5048757;28;20534;-74
2023/11/10 06:19:23;;;;;;;0.70;0.60;;;7.10;99.90;;;;;;5038455;28;20538;-74
2023/11/10 06:21:50;;;;;;;1.00;0.70;;;7.00;99.90;;;;;;5043359;28;20220;-74
2023/11/10 06:24:16;;;;;;;1.83;0.80;;;7.00;99.90;;;;;;5039914;28;20208;-73
2023/11/10 06:26:42;;;;;;;2.70;1.00;;;7.00;99.90;;;;;;5041317;28;20524;-74
2023/11/10 06:29:08;;;;;;;3.80;0.87;;;7.10;99.90;;;;;;5044009;28;20498;-74
2023/11/10 06:31:34;;;;;;;6.07;1.47;;;7.20;99.90;;;;;;5039996;28;20251;-74
2023/11/10 06:34:00;;;;;;;0.50;0.40;;;7.30;99.90;;;;;;5045753;28;20219;-75
2023/11/10 06:36:25;;;;;;;1.03;0.83;;;7.40;99.90;;;;;;5025843;28;20462;-74
2023/11/10 06:38:51;;;;;;;2.10;0.70;;;7.40;99.90;;;;;;5043406;28;20208;-75
2023/11/10 06:41:17;;;;;;;0.93;0.83;;;7.40;99.90;;;;;;5026851;28;20215;-75
2023/11/10 06:43:45;;;;;;;1.10;0.80;;;7.40;99.90;;;;;;5045061;28;20284;-75
2023/11/10 06:46:11;;;;;;;0.70;0.60;;;7.40;99.90;;;;;;5043973;28;20200;-74
2023/11/10 06:48:37;;;;;;;1.70;0.80;;;7.40;99.90;;;;;;5043702;28;20458;-75
2023/11/10 06:51:03;;;;;;;3.60;0.70;;;7.30;99.90;;;;;;5032608;28;20474;-74
2023/11/10 06:53:29;;;;;;;0.80;0.60;;;7.30;99.90;;;;;;5036975;28;20223;-74
2023/11/10 06:55:56;;;;;;;2.40;1.00;;;7.30;99.90;;;;;;5050294;28;20471;-75
2023/11/10 06:58:22;;;;;;;0.93;0.60;;;7.30;99.90;;;;;;5017567;28;20459;-74
2023/11/10 07:00:49;;;;;;;0.50;0.50;;;7.20;99.90;;;;;;5031079;28;20470;-75
2023/11/10 07:03:16;;;;;;;0.60;0.50;;;7.20;99.90;;;;;;5019687;28;20980;-75
2023/11/10 07:05:42;;;;;;;1.33;0.90;;;7.20;99.90;;;;;;5029646;28;20457;-75
2023/11/10 07:08:11;;;;;;;0.53;0.53;;;7.20;99.90;;;;;;5052841;28;20466;-74
2023/11/10 07:10:43;;;;;;;1.67;0.90;;;7.30;99.90;;;;;;5021075;28;20467;-75
2023/11/10 07:13:10;;;;;;;2.83;1.00;;;7.30;99.90;;;;;;5064099;28;20454;-75
2023/11/10 07:15:36;;;;;;;1.07;0.93;;;7.40;99.90;;;;;;5037554;28;20888;-75
2023/11/10 07:18:02;;;;;;;1.73;1.20;;;7.30;99.90;;;;;;5045709;28;20462;-75
2023/11/10 07:20:30;;;;;;;1.30;1.17;;;7.30;99.90;;;;;;5022973;28;20455;-75
2023/11/10 07:22:58;;;;;;;2.50;1.30;;;7.30;99.90;;;;;;5049107;28;20212;-74
2023/11/10 07:25:28;;;;;;;1.57;1.10;;;7.30;99.90;;;;;;5042991;28;20450;-75
2023/11/10 07:27:54;;;;;;;1.67;1.10;;;7.30;99.90;;;;;;5055015;28;20537;-75
2023/11/10 07:30:21;;;;;;;1.23;1.13;;;7.30;99.90;;;;;;5038501;28;20466;-75
2023/11/10 07:32:47;;;;;;;0.80;0.80;;;7.30;99.90;;;;;;5045097;28;20895;-75
2023/11/10 07:35:13;;;;;;;2.30;1.13;;;7.40;99.90;;;;;;5046906;28;20466;-75
2023/11/10 07:37:44;;;;;;;1.00;0.80;;;7.40;99.90;;;;;;5058815;28;20501;-74
2023/11/10 07:40:13;;;;;;;2.50;0.97;;;7.40;99.90;;;;;;5043736;28;20414;-75
2023/11/10 07:42:42;;;;;;;2.10;0.93;;;7.50;99.90;;;;;;5037622;28;20446;-75
2023/11/10 07:45:15;;;;;;;1.13;1.03;;;7.60;99.90;;;;;;5046204;28;20497;-75
2023/11/10 07:47:42;;;;;;;2.30;1.60;;;7.60;99.90;;;;;;5032908;28;20850;-75
2023/11/10 07:50:08;;;;;;;0.70;0.70;;;7.70;99.90;;;;;;5058769;28;20489;-75
2023/11/10 07:52:34;;;;;;;1.97;1.10;;;7.70;99.90;;;;;;5039223;28;20453;-75
2023/11/10 07:54:59;;;;;;;2.10;1.17;;;7.80;99.90;;;;;;5035411;28;20478;-75
2023/11/10 07:57:28;;;;;;;3.63;0.80;;;7.80;99.90;;;;;;5026372;28;20693;-74
2023/11/10 07:59:54;;;;;;;4.37;1.13;;;7.80;99.90;;;;;;5049009;28;20224;-75
2023/11/10 08:02:19;;;;;;;2.20;1.00;;;7.80;99.90;;;;;;5042054;28;20473;-74
2023/11/10 08:04:45;;;;;;;2.70;1.30;;;7.80;99.90;;;;;;5020654;28;20272;-74
2023/11/10 08:07:11;;;;;;;1.87;1.43;;;7.80;99.90;;;;;;5025087;28;20244;-73
2023/11/10 08:09:37;;;;;;;1.47;0.97;;;7.80;99.90;;;;;;5014802;28;20229;-75
2023/11/10 08:12:03;;;;;;;1.50;1.03;;;7.90;99.90;;;;;;5022169;28;20517;-75
2023/11/10 08:14:28;;;;;;;1.97;1.00;;;7.90;99.90;;;;;;5016787;28;20316;-74
2023/11/10 08:16:54;;;;;;;1.27;0.70;;;7.90;99.90;;;;;;5035669;28;20231;-74
2023/11/10 08:19:20;;;;;;;1.00;0.83;;;7.90;99.90;;;;;;5025229;28;20223;-75
2023/11/10 08:21:47;;;;;;;4.50;0.87;;;8.00;99.90;;;;;;5035873;28;20469;-75
2023/11/10 08:24:13;;;;;;;1.07;0.90;;;8.10;99.90;;;;;;5022070;28;20294;-73
2023/11/10 08:26:39;;;;;;;3.40;0.80;;;8.10;99.90;;;;;;5023857;28;20460;-75
2023/11/10 08:29:07;;;;;;;3.70;0.90;;;8.10;99.90;;;;;;5015232;28;20470;-75
2023/11/10 08:31:32;;;;;;;2.00;1.07;;;8.20;99.90;;;;;;5034205;28;20211;-75
2023/11/10 08:33:58;;;;;;;1.80;1.00;;;8.30;99.90;;;;;;5030820;28;20455;-75
2023/11/10 08:36:24;;;;;;;4.00;1.00;;;8.40;99.90;;;;;;5048769;28;20468;-74
2023/11/10 08:38:49;;;;;;;1.70;1.10;;;8.40;99.90;;;;;;5029183;28;20366;-75
2023/11/10 08:41:16;;;;;;;3.20;1.20;;;8.50;99.90;;;;;;5030814;28;20681;-74
2023/11/10 08:43:42;;;;;;;2.20;1.17;;;8.60;99.90;;;;;;5027630;28;20698;-75
2023/11/10 08:46:08;;;;;;;2.00;0.87;;;8.60;99.90;;;;;;5034893;28;20472;-75
2023/11/10 08:48:34;;;;;;;6.93;1.13;;;8.60;99.90;;;;;;5037597;28;20208;-75
2023/11/10 08:50:59;;;;;;;1.07;0.87;;;8.70;99.90;;;;;;5021238;28;20701;-75
2023/11/10 08:53:25;;;;;;;0.63;0.63;;;8.80;99.90;;;;;;5035317;28;20294;-75
2023/11/10 08:55:51;;;;;;;2.73;1.13;;;8.80;99.90;;;;;;5026200;28;20227;-75
2023/11/10 08:58:18;;;;;;;0.70;0.70;;;8.80;99.90;;;;;;5044451;28;20462;-75
2023/11/10 09:00:43;;;;;;;2.77;0.67;;;8.80;99.90;;;;;;5039432;28;20771;-75
2023/11/10 09:03:09;;;;;;;2.30;1.00;;;8.90;99.90;;;;;;5045760;28;20462;-75
2023/11/10 09:05:35;;;;;;;3.67;0.93;;;8.90;99.90;;;;;;5024850;28;20218;-75
2023/11/10 09:08:00;;;;;;;0.93;0.90;;;9.10;99.90;;;;;;5046457;28;20254;-75
2023/11/10 09:10:26;;;;;;;0.90;0.90;;;9.10;99.90;;;;;;5040411;28;20222;-75
2023/11/10 09:12:52;;;;;;;2.00;0.90;;;9.20;99.90;;;;;;5028698;28;20211;-75
2023/11/10 09:15:18;;;;;;;5.10;1.07;;;9.20;99.90;;;;;;5048795;28;20319;-75
2023/11/10 09:17:44;;;;;;;1.53;0.87;;;9.20;99.90;;;;;;5061313;28;20200;-75
2023/11/10 09:20:11;;;;;;;0.80;0.80;;;9.20;99.90;;;;;;5047799;28;20879;-75
2023/11/10 09:22:38;;;;;;;1.30;0.87;;;9.20;99.90;;;;;;5056538;28;20804;-75
2023/11/10 09:25:05;;;;;;;1.80;0.70;;;9.20;99.90;;;;;;5040889;28;20459;-75
2023/11/10 09:27:34;;;;;;;1.00;0.70;;;9.20;99.90;;;;;;5044093;28;20674;-75
2023/11/10 09:30:00;;;;;;;1.63;1.00;;;9.20;99.90;;;;;;5042758;28;20556;-74
2023/11/10 09:32:25;;;;;;;1.87;0.83;;;9.20;99.90;;;;;;5061190;28;20462;-76
2023/11/10 09:34:51;;;;;;;0.77;0.70;;;9.20;99.90;;;;;;5040141;28;20223;-75
2023/11/10 09:37:17;;;;;;;0.90;0.90;;;9.20;99.90;;;;;;5045893;28;20223;-75
2023/11/10 09:39:46;;;;;;;5.83;0.83;;;9.20;99.90;;;;;;5042363;28;20235;-75
2023/11/10 09:42:12;;;;;;;5.23;0.87;;;9.20;99.90;;;;;;5044409;28;20215;-75
2023/11/10 09:44:49;;;;;;;1.37;0.80;;;9.20;99.90;;;;;;5034934;28;20457;-75
2023/11/10 09:47:17;;;;;;;2.10;1.20;;;9.20;99.90;;;;;;5059156;28;20453;-75
2023/11/10 09:49:42;;;;;;;2.40;1.10;;;9.20;99.90;;;;;;5059086;28;20564;-75
2023/11/10 09:52:11;;;;;;;0.80;0.70;;;9.10;99.90;;;;;;5046864;28;20995;-74
2023/11/10 09:54:37;;;;;;;1.50;0.63;;;9.20;99.90;;;;;;5042257;28;20223;-75
2023/11/10 09:57:03;;;;;;;1.50;0.90;;;9.20;99.90;;;;;;5060847;28;20450;-75
2023/11/10 09:59:31;;;;;;;0.67;0.63;;;9.30;99.90;;;;;;5039554;28;20285;-75
2023/11/10 10:02:02;;;;;;;2.10;0.80;;;9.40;99.90;;;;;;5060570;28;20450;-75
2023/11/10 10:04:28;;;;;;;0.60;0.50;;;9.40;99.90;;;;;;5058631;28;20468;-75
2023/11/10 10:06:57;;;;;;;1.10;1.00;;;9.40;99.90;;;;;;5063118;28;20541;-75
2023/11/10 10:09:23;;;;;;;1.87;1.00;;;9.40;99.90;;;;;;5023816;28;20455;-75
2023/11/10 10:11:50;;;;;;;3.67;0.90;;;9.40;99.90;;;;;;5061676;28;20537;-75
2023/11/10 10:14:17;;;;;;;1.80;0.80;;;9.40;99.90;;;;;;5024516;28;20519;-75
2023/11/10 10:16:56;;;;;;;2.63;1.30;;;9.30;99.90;;;;;;5041568;28;20568;-75
2023/11/10 10:19:29;;;;;;;0.80;0.70;;;9.30;99.90;;;;;;5053422;28;20531;-75
2023/11/10 10:21:56;;;;;;;4.30;1.30;;;9.30;99.90;;;;;;5044426;28;20470;-75
2023/11/10 10:24:22;;;;;;;2.97;1.20;;;9.40;99.90;;;;;;5028134;28;20496;-75
2023/11/10 10:26:48;;;;;;;2.80;1.20;;;9.40;99.90;;;;;;5059541;28;21013;-75
2023/11/10 10:29:14;;;;;;;0.57;0.53;;;9.30;99.90;;;;;;5043977;28;20991;-75
2023/11/10 10:31:40;;;;;;;1.80;0.90;;;9.30;99.90;;;;;;5038301;28;20536;-75
2023/11/10 10:34:07;;;;;;;1.10;1.00;;;9.30;99.90;;;;;;5043881;28;20537;-75
2023/11/10 10:36:37;;;;;;;1.57;1.23;;;9.20;99.90;;;;;;5060534;28;20466;-75
2023/11/10 10:39:10;;;;;;;2.23;1.00;;;9.20;99.90;;;;;;5029509;28;20524;-74
2023/11/10 10:41:39;;;;;;;2.80;0.70;;;9.20;99.90;;;;;;5037111;28;20463;-75
2023/11/10 10:44:06;;;;;;;0.80;0.70;;;9.20;99.90;;;;;;5058574;28;20533;-75
2023/11/10 10:46:36;;;;;;;1.87;0.90;;;9.20;99.90;;;;;;5039754;28;20462;-75
2023/11/10 10:49:03;;;;;;;0.67;0.67;;;9.20;99.90;;;;;;5042193;28;21084;-75
2023/11/10 10:51:36;;;;;;;4.70;1.30;;;9.10;99.90;;;;;;5039010;28;20454;-75
2023/11/10 10:54:03;;;;;;;0.83;0.80;;;9.00;99.90;;;;;;5044059;28;20458;-75
2023/11/10 10:56:39;;;;;;;5.03;1.57;;;9.00;99.90;;;;;;5056476;28;20474;-75
2023/11/10 10:59:06;;;;;;;0.80;0.80;;;9.00;99.90;;;;;;5039827;28;20489;-75
2023/11/10 11:01:33;;;;;;;2.63;0.70;;;9.00;99.90;;;;;;5037308;28;20470;-75
2023/11/10 11:04:14;;;;;;;1.93;0.90;;;9.10;99.90;;;;;;5044661;28;20507;-75
2023/11/10 11:07:16;;;;;;;1.80;0.90;;;9.10;99.90;;;;;;5057137;28;20473;-75
2023/11/10 11:10:06;;;;;;;0.73;0.73;;;9.10;99.90;;;;;;5033668;28;20470;-75
2023/11/10 11:12:45;;;;;;;2.47;1.00;;;9.10;99.90;;;;;;5020649;28;20463;-75
2023/11/10 11:15:22;;;;;;;3.50;1.10;;;9.10;99.90;;;;;;5044767;28;20484;-75
2023/11/10 11:18:10;;;;;;;2.50;0.80;;;9.10;99.90;;;;;;5047592;28;20445;-75
2023/11/10 11:20:37;;;;;;;0.73;0.70;;;9.10;99.90;;;;;;5039788;28;20486;-75
2023/11/10 11:23:05;;;;;;;2.00;0.80;;;9.10;99.90;;;;;;5026240;28;20782;-74
2023/11/10 11:25:32;;;;;;;0.70;0.70;;;9.20;99.90;;;;;;5024513;28;20540;-75
2023/11/10 11:27:58;;;;;;;1.67;1.23;;;9.20;99.90;;;;;;5060796;28;20465;-75
2023/11/10 11:30:36;;;;;;;1.40;0.70;;;9.20;99.90;;;;;;5042321;28;20465;-75
2023/11/10 11:33:09;;;;;;;2.93;0.77;;;9.20;99.90;;;;;;5059236;28;20513;-75
2023/11/10 11:35:46;;;;;;;0.90;0.60;;;9.20;99.90;;;;;;5037271;28;20553;-75
2023/11/10 11:38:32;;;;;;;1.23;0.60;;;9.20;99.90;;;;;;5019181;28;20465;-75
2023/11/10 11:41:02;;;;;;;0.90;0.53;;;9.20;99.90;;;;;;5046235;28;20546;-75
2023/11/10 11:43:29;;;;;;;0.67;0.53;;;9.20;99.90;;;;;;5022389;28;20516;-75
2023/11/10 11:45:55;;;;;;;0.70;0.70;;;9.20;99.90;;;;;;5040093;28;20547;-75
2023/11/10 11:48:21;;;;;;;1.80;0.90;;;9.30;99.90;;;;;;5061701;28;20479;-75
2023/11/10 11:50:52;;;;;;;0.73;0.73;;;9.30;99.90;;;;;;5041321;28;20461;-75
2023/11/10 11:53:24;;;;;;;1.77;0.90;;;9.40;99.90;;;;;;5044772;28;20971;-75
2023/11/10 11:55:57;;;;;;;2.03;1.00;;;9.40;99.90;;;;;;5030165;28;20907;-75
2023/11/10 11:58:24;;;;;;;0.80;0.80;;;9.40;99.90;;;;;;5042964;28;20474;-75
2023/11/10 12:00:50;;;;;;;1.00;1.00;;;9.40;99.90;;;;;;5054934;28;20461;-75
2023/11/10 12:03:16;;;;;;;2.80;0.87;;;9.50;99.90;;;;;;5036645;28;20458;-75
2023/11/10 12:05:44;;;;;;;1.30;1.20;;;9.50;99.90;;;;;;5059446;28;20450;-75
2023/11/10 12:08:15;;;;;;;0.77;0.77;;;9.60;99.90;;;;;;5025907;28;20204;-75
2023/11/10 12:10:42;;;;;;;0.83;0.80;;;9.70;99.90;;;;;;5034751;28;20461;-75
2023/11/10 12:13:12;;;;;;;1.73;0.90;;;9.80;99.90;;;;;;5040805;28;20455;-75
2023/11/10 12:15:41;;;;;;;1.10;1.00;;;9.90;99.90;;;;;;5037320;28;20463;-74
2023/11/10 12:18:08;;;;;;;1.10;0.83;;;10.00;99.90;;;;;;5024302;28;20452;-75
2023/11/10 12:20:35;;;;;;;1.70;1.00;;;10.20;99.90;;;;;;5060625;28;20482;-75
2023/11/10 12:23:01;;;;;;;3.67;1.10;;;10.30;99.90;;;;;;5063634;28;20481;-75
2023/11/10 12:25:27;;;;;;;4.83;1.40;;;10.20;99.90;;;;;;5022831;28;20447;-75
2023/11/10 12:27:56;;;;;;;1.13;0.70;;;10.20;99.90;;;;;;5057601;28;20493;-75
2023/11/10 12:30:22;;;;;;;5.50;1.00;;;10.20;99.90;;;;;;5039507;28;20715;-75
2023/11/10 12:32:49;;;;;;;4.43;2.10;;;10.20;99.90;;;;;;5051518;28;20553;-75
2023/11/10 12:35:15;;;;;;;2.17;1.93;;;10.20;99.90;;;;;;5024711;28;20550;-75
2023/11/10 12:37:41;;;;;;;3.63;2.37;;;10.10;99.90;;;;;;5040512;28;20474;-75
2023/11/10 12:40:17;;;;;;;2.37;1.60;;;10.10;99.90;;;;;;5047638;28;20216;-74
2023/11/10 12:42:45;;;;;;;3.23;2.03;;;10.20;99.90;;;;;;5043468;28;20629;-75
2023/11/10 12:45:11;;;;;;;2.57;2.13;;;10.10;99.90;;;;;;5047985;28;20485;-75
2023/11/10 12:47:42;;;;;;;3.03;1.83;;;10.10;99.90;;;;;;5044219;28;20473;-75
2023/11/10 12:50:47;;;;;;;13.27;6.80;;;10.10;99.90;;;;;;5034376;28;20499;-75
2023/11/10 12:53:04;;;;;;;5.43;4.07;;;10.10;99.90;;;;;;5052253;28;20455;-75
2023/11/10 12:55:30;;;;;;;8.03;1.60;;;10.10;99.90;;;;;;5008734;28;20999;-75